Westerlo, Belgium
Current Conditions -  °F | °C
As of 10:25 AM on Wednesday 22 Oct 2014 (Local Time) from EBDT Reporting Station
Rain Showers Rain Showers  
Wind Chill: 41°   Ceiling: Unl
Heat Index: 46°   Visibility: 6mi
Dew Point: 43°   Wind: 12mph
Humidity: 87%   Direction: 290°WNW
Pressure: 30.12"   Gusts: NA
Location:  51.09°N, 4.92°E
Report Text: EBDT 220825Z 29010KT 9999 -SHRA FEW024TCU SCT045 08/06 Q1020 BLU BLU TEMPO WHT
Loading
Personal Weather Stations






























Interactive Weather Map
Tropical Storm Tracking
New forecast layout! Learn more

10-Day Weather Forecast

Advertisements
Track Severe Weather on mobile